createdAt,value
2022-08-02T00:04:35.389Z,28.03
2022-08-02T00:10:59.394Z,28.01
2022-08-02T00:17:31.894Z,28.04
2022-08-02T00:24:28.445Z,28.07
2022-08-02T00:31:12.443Z,28.25
2022-08-02T00:37:33.348Z,28.3
2022-08-02T00:44:12.706Z,28.25
2022-08-02T00:50:45.432Z,28.27
2022-08-02T00:57:11.531Z,28.24
2022-08-02T01:03:40.292Z,28.18
2022-08-02T01:10:05.376Z,28.17
2022-08-02T01:16:41.480Z,28.1
2022-08-02T01:23:49.764Z,28.04
2022-08-02T01:30:47.459Z,28.05
2022-08-02T01:37:51.770Z,28.07
2022-08-02T01:44:47.498Z,28.07
2022-08-02T01:51:32.907Z,28.03
2022-08-02T01:58:23.302Z,28.03
2022-08-02T02:05:05.866Z,28.06
2022-08-02T02:12:03.683Z,28.03
2022-08-02T02:18:44.758Z,28.07
2022-08-02T02:25:24.320Z,27.98
2022-08-02T02:32:27.490Z,27.99
2022-08-02T02:39:17.312Z,27.98
2022-08-02T02:45:53.652Z,28.02
2022-08-02T02:52:22.703Z,27.99
2022-08-02T02:58:55.328Z,28.02
2022-08-02T03:05:29.434Z,27.98
2022-08-02T03:11:54.375Z,28.03
2022-08-02T03:18:39.586Z,28.01
2022-08-02T03:25:03.760Z,28.01
2022-08-02T03:31:34.483Z,27.98
2022-08-02T03:38:12.067Z,28.05
2022-08-02T03:44:56.411Z,28.16
2022-08-02T03:51:40.408Z,28.29
2022-08-02T03:58:09.450Z,28.1
2022-08-02T04:04:49.923Z,28.12
2022-08-02T04:11:27.420Z,27.98
2022-08-02T04:18:04.489Z,27.6
2022-08-02T04:25:17.411Z,27.77
2022-08-02T04:31:53.779Z,27.47
2022-08-02T04:38:21.598Z,27.35
2022-08-02T04:44:59.551Z,27.3
2022-08-02T04:51:38.238Z,27.23
2022-08-02T04:58:24.065Z,27.16
2022-08-02T05:04:50.496Z,27.15
2022-08-02T05:11:19.973Z,27.06
2022-08-02T05:17:45.203Z,27.02
2022-08-02T05:24:19.572Z,27.04
2022-08-02T05:30:43.984Z,27.02
2022-08-02T05:37:10.446Z,26.99
2022-08-02T05:43:50.584Z,26.95
2022-08-02T05:50:14.277Z,26.93
2022-08-02T05:57:14.907Z,26.94
2022-08-02T06:04:15.901Z,26.88
2022-08-02T06:11:09.495Z,26.91
2022-08-02T06:17:49.412Z,26.87
2022-08-02T06:24:24.883Z,26.92
2022-08-02T06:30:52.571Z,26.98
2022-08-02T06:37:30.316Z,27.08
2022-08-02T06:44:47.692Z,27.33
2022-08-02T06:51:17.798Z,27.23
2022-08-02T06:57:42.015Z,27.23
2022-08-02T07:04:07.452Z,27.34
2022-08-02T07:10:34.994Z,27.28
2022-08-02T07:17:02.748Z,27.3
2022-08-02T07:23:25.648Z,27.32
2022-08-02T07:29:53.802Z,27.38
2022-08-02T07:36:22.577Z,27.34
2022-08-02T07:42:45.798Z,27.35
2022-08-02T07:49:10.682Z,27.31
2022-08-02T07:55:40.740Z,27.36
2022-08-02T08:02:08.460Z,27.37
2022-08-02T08:08:41.849Z,27.41
2022-08-02T08:15:05.575Z,27.37
2022-08-02T08:21:31.653Z,27.38
2022-08-02T08:27:58.919Z,27.41
2022-08-02T08:34:24.526Z,27.43
2022-08-02T08:40:49.574Z,27.42
2022-08-02T08:47:13.602Z,27.41
2022-08-02T08:54:18.595Z,27.45
2022-08-02T09:00:57.635Z,27.45
2022-08-02T09:07:46.556Z,27.48
2022-08-02T09:14:34.566Z,27.51
2022-08-02T09:21:25.754Z,27.49
2022-08-02T09:28:39.386Z,27.43
2022-08-02T09:35:27.837Z,27.49
2022-08-02T09:42:30.228Z,27.49
2022-08-02T09:49:04.522Z,27.51
2022-08-02T09:55:47.693Z,27.42
2022-08-02T10:02:33.922Z,27.41
2022-08-02T10:09:04.985Z,27.46
2022-08-02T10:15:30.977Z,27.48
2022-08-02T10:22:04.736Z,27.43
2022-08-02T10:28:52.100Z,27.44
2022-08-02T10:35:42.910Z,27.51
2022-08-02T10:42:23.084Z,27.53
2022-08-02T10:49:39.004Z,27.55
2022-08-02T10:56:41.777Z,27.58
2022-08-02T11:03:39.248Z,27.64
2022-08-02T11:10:42.848Z,27.68
2022-08-02T11:17:22.701Z,27.7
2022-08-02T11:24:10.142Z,27.71
2022-08-02T11:31:03.054Z,27.69
2022-08-02T11:37:37.186Z,27.7
2022-08-02T11:44:14.884Z,27.73
2022-08-02T11:50:56.073Z,27.76
2022-08-02T11:57:59.554Z,27.77
2022-08-02T12:04:40.608Z,27.76
2022-08-02T12:11:28.091Z,27.69
2022-08-02T12:18:12.101Z,27.71
2022-08-02T12:24:37.937Z,27.61
2022-08-02T12:31:36.255Z,27.6
2022-08-02T12:38:32.587Z,27.66
2022-08-02T12:45:23.934Z,27.67
2022-08-02T12:52:06.916Z,27.63
2022-08-02T12:59:13.621Z,27.67
2022-08-02T13:06:04.063Z,27.66
2022-08-02T13:12:52.210Z,27.67
2022-08-02T13:19:31.195Z,27.69
2022-08-02T13:26:06.725Z,27.7
2022-08-02T13:32:28.287Z,27.67
2022-08-02T13:38:57.725Z,27.68
2022-08-02T13:45:22.752Z,27.64
2022-08-02T13:51:46.847Z,27.65
2022-08-02T13:58:10.047Z,27.63
2022-08-02T14:04:45.909Z,27.57
2022-08-02T14:11:10.770Z,27.56
2022-08-02T14:17:41.903Z,27.55
2022-08-02T14:24:19.833Z,27.55
2022-08-02T14:30:46.785Z,27.56
2022-08-02T14:37:13.730Z,27.53
2022-08-02T14:43:41.001Z,27.49
2022-08-02T14:50:04.356Z,27.52
2022-08-02T14:56:31.811Z,27.52
2022-08-02T15:02:55.771Z,27.54
2022-08-02T15:09:18.819Z,27.51
2022-08-02T15:15:47.218Z,27.51
2022-08-02T15:22:14.420Z,27.53
2022-08-02T15:28:42.975Z,27.57
2022-08-02T15:35:05.322Z,27.7
2022-08-02T15:41:27.942Z,27.72
2022-08-02T15:47:50.832Z,27.67
2022-08-02T15:54:16.196Z,27.75
2022-08-02T16:00:48.846Z,27.78
2022-08-02T16:07:13.147Z,27.93
2022-08-02T16:13:52.650Z,27.98
2022-08-02T16:20:24.932Z,28.03
2022-08-02T16:26:46.594Z,28.02
2022-08-02T16:33:10.940Z,28.07
2022-08-02T16:39:53.754Z,28.03
2022-08-02T16:46:21.735Z,28.08
2022-08-02T16:52:58.341Z,28.1
2022-08-02T16:59:33.996Z,28.1
2022-08-02T17:06:21.281Z,28.14
2022-08-02T17:13:10.904Z,28.16
2022-08-02T17:19:38.791Z,28.25
2022-08-02T17:26:05.236Z,28.22
2022-08-02T17:32:45.466Z,28.17
2022-08-02T17:39:08.318Z,28.12
2022-08-02T17:45:59.625Z,28.11
2022-08-02T17:52:48.510Z,28.06
2022-08-02T17:59:20.324Z,27.77
2022-08-02T18:06:00.068Z,27.68
2022-08-02T18:12:33.870Z,27.57
2022-08-02T18:19:03.106Z,27.65
2022-08-02T18:25:55.363Z,27.77
2022-08-02T18:32:37.774Z,27.83
2022-08-02T18:39:23.948Z,28
2022-08-02T18:46:06.346Z,28.09
2022-08-02T18:52:43.947Z,28.09
2022-08-02T18:59:12.830Z,28.15
2022-08-02T19:05:51.844Z,28.24
2022-08-02T19:12:22.579Z,28.19
2022-08-02T19:18:54.219Z,28.16
2022-08-02T19:25:27.672Z,28.17
2022-08-02T19:32:10.422Z,28.23
2022-08-02T19:38:49.908Z,28.21
2022-08-02T19:45:17.829Z,28.2
2022-08-02T19:51:57.826Z,28.17
2022-08-02T19:58:27.345Z,28.16
2022-08-02T20:04:53.137Z,28.2
2022-08-02T20:11:17.810Z,28.17
2022-08-02T20:17:42.297Z,28.19
2022-08-02T20:24:10.402Z,28.26
2022-08-02T20:30:48.960Z,28.18
2022-08-02T20:37:56.756Z,28.2
2022-08-02T20:44:15.551Z,28.22
2022-08-02T20:50:41.537Z,28.18
2022-08-02T20:57:16.906Z,28.17
2022-08-02T21:03:44.028Z,28.19
2022-08-02T21:10:33.952Z,28.22
2022-08-02T21:17:04.103Z,28.26
2022-08-02T21:23:44.899Z,28.26
2022-08-02T21:30:36.028Z,28.25
2022-08-02T21:37:09.748Z,28.25
2022-08-02T21:43:38.452Z,28.26
2022-08-02T21:50:09.890Z,28.25
2022-08-02T21:56:56.054Z,28.22
2022-08-02T22:03:22.357Z,28.28
2022-08-02T22:09:55.871Z,28.18
2022-08-02T22:16:25.982Z,28.19
2022-08-02T22:22:52.385Z,28.2
2022-08-02T22:29:23.427Z,28.12
2022-08-02T22:36:03.904Z,28.17
2022-08-02T22:42:40.110Z,28.17
2022-08-02T22:49:09.192Z,28.15
2022-08-02T22:55:46.077Z,28.2
2022-08-02T23:02:14.271Z,28.2
2022-08-02T23:08:47.937Z,28.23
2022-08-02T23:15:18.872Z,28.29
2022-08-02T23:22:02.145Z,28.14
2022-08-02T23:28:49.025Z,28.22
2022-08-02T23:35:22.102Z,28.08
2022-08-02T23:41:54.694Z,28.05
2022-08-02T23:48:35.676Z,28.03
2022-08-02T23:55:03.079Z,28.1
